createdAt,value
2022-10-15T00:04:24.028Z,7.35
2022-10-15T00:09:22.994Z,5.70
2022-10-15T00:14:21.932Z,7.10
2022-10-15T00:19:22.192Z,7.75
2022-10-15T00:24:21.041Z,7.47
2022-10-15T00:29:19.904Z,9.80
2022-10-15T00:34:18.876Z,8.98
2022-10-15T00:39:20.016Z,6.78
2022-10-15T00:44:52.399Z,5.88
2022-10-15T00:49:58.444Z,7.00
2022-10-15T00:55:03.860Z,7.18
2022-10-15T01:00:09.223Z,7.90
2022-10-15T01:05:11.927Z,10.10
2022-10-15T01:10:14.320Z,9.23
2022-10-15T01:15:18.243Z,9.25
2022-10-15T01:20:45.729Z,7.53
2022-10-15T01:26:02.263Z,9.68
2022-10-15T01:31:08.323Z,6.70
2022-10-15T01:36:17.608Z,8.18
2022-10-15T01:41:23.165Z,7.57
2022-10-15T01:46:33.300Z,7.47
2022-10-15T01:51:39.325Z,10.85
2022-10-15T01:56:39.871Z,7.57
2022-10-15T02:06:45.988Z,9.98
2022-10-15T02:11:57.142Z,12.02
2022-10-15T02:17:04.216Z,16.45
2022-10-15T02:22:10.331Z,15.18
2022-10-15T02:27:12.225Z,16.42
2022-10-15T02:32:14.052Z,13.75
2022-10-15T02:37:14.240Z,8.52
2022-10-15T02:42:17.852Z,13.23
2022-10-15T02:47:18.278Z,15.00
2022-10-15T02:52:17.231Z,13.25
2022-10-15T02:57:16.481Z,12.10
2022-10-15T03:02:19.381Z,11.80
2022-10-15T03:07:19.662Z,13.37
2022-10-15T03:12:21.090Z,12.98
2022-10-15T03:17:21.728Z,8.55
2022-10-15T03:22:21.587Z,9.20
2022-10-15T03:27:26.330Z,18.60
2022-10-15T03:32:27.382Z,9.27
2022-10-15T03:37:26.497Z,10.05
2022-10-15T03:42:27.344Z,7.88
2022-10-15T03:47:27.884Z,6.45
2022-10-15T03:52:28.429Z,9.10
2022-10-15T03:57:27.728Z,8.57
2022-10-15T04:02:36.920Z,9.73
2022-10-15T04:07:35.892Z,12.40
2022-10-15T04:12:35.115Z,12.25
2022-10-15T04:17:39.279Z,10.20
2022-10-15T04:22:39.251Z,11.05
2022-10-15T04:27:40.026Z,14.27
2022-10-15T04:32:46.316Z,9.82
2022-10-15T04:37:45.973Z,11.98
2022-10-15T04:42:45.054Z,13.95
2022-10-15T04:47:46.318Z,11.05
2022-10-15T04:52:47.152Z,16.13
2022-10-15T04:57:46.324Z,13.30
2022-10-15T05:02:47.152Z,12.70
2022-10-15T05:07:53.740Z,12.32
2022-10-15T05:12:56.618Z,11.43
2022-10-15T05:18:04.065Z,12.65
2022-10-15T05:23:12.232Z,12.13
2022-10-15T05:28:13.800Z,19.83
2022-10-15T05:33:14.246Z,14.60
2022-10-15T05:38:13.728Z,14.88
2022-10-15T05:43:13.156Z,16.88
2022-10-15T05:48:13.927Z,12.80
2022-10-15T05:53:13.350Z,15.77
2022-10-15T05:58:16.733Z,14.18
2022-10-15T06:03:17.075Z,13.50
2022-10-15T06:08:16.072Z,20.35
2022-10-15T06:13:16.186Z,22.77
2022-10-15T06:18:17.031Z,19.05
2022-10-15T06:23:15.791Z,19.92
2022-10-15T06:28:14.799Z,17.17
2022-10-15T06:33:16.359Z,20.80
2022-10-15T06:38:16.704Z,20.10
2022-10-15T06:43:46.029Z,26.65
2022-10-15T06:48:47.255Z,27.73
2022-10-15T06:53:48.674Z,41.17
2022-10-15T06:58:47.810Z,30.42
2022-10-15T07:03:52.135Z,26.40
2022-10-15T07:08:52.824Z,17.75
2022-10-15T07:13:52.816Z,25.25
2022-10-15T07:18:52.924Z,19.80
2022-10-15T07:23:53.584Z,18.67
2022-10-15T07:28:53.546Z,19.70
2022-10-15T07:34:04.608Z,16.20
2022-10-15T07:39:05.845Z,16.10
2022-10-15T07:44:07.371Z,15.40
2022-10-15T07:49:06.528Z,15.15
2022-10-15T07:54:07.332Z,13.85
2022-10-15T07:59:06.355Z,13.77
2022-10-15T08:04:06.605Z,14.90
2022-10-15T08:09:08.783Z,15.60
2022-10-15T08:14:07.663Z,12.75
2022-10-15T08:19:06.455Z,12.77
2022-10-15T08:24:05.783Z,13.77
2022-10-15T08:29:08.996Z,18.48
2022-10-15T08:34:08.280Z,11.05
2022-10-15T08:39:09.340Z,17.10
2022-10-15T08:44:17.283Z,16.00
2022-10-15T08:49:28.092Z,14.48
2022-10-15T08:54:36.640Z,14.75
2022-10-15T08:59:42.072Z,15.68
2022-10-15T09:04:49.804Z,14.27
2022-10-15T09:09:52.644Z,15.38
2022-10-15T09:15:01.105Z,13.80
2022-10-15T09:20:07.959Z,14.95
2022-10-15T09:25:17.463Z,11.60
2022-10-15T09:30:34.073Z,17.40
2022-10-15T09:41:16.703Z,8.77
2022-10-15T09:46:17.313Z,11.82
2022-10-15T09:51:27.141Z,13.40
2022-10-15T09:56:33.441Z,10.77
2022-10-15T10:01:34.725Z,7.68
2022-10-15T10:06:33.936Z,11.70
2022-10-15T10:11:49.634Z,10.63
2022-10-15T10:17:18.888Z,13.63
2022-10-15T10:22:20.287Z,10.15
2022-10-15T10:27:45.051Z,11.45
2022-10-15T10:33:02.212Z,12.18
2022-10-15T10:38:03.204Z,10.40
2022-10-15T10:43:13.581Z,13.00
2022-10-15T10:48:23.441Z,12.00
2022-10-15T10:53:24.937Z,12.23
2022-10-15T10:58:27.125Z,14.32
2022-10-15T11:03:37.084Z,5.72
2022-10-15T11:08:42.928Z,7.43
2022-10-15T11:13:58.846Z,9.30
2022-10-15T11:19:19.101Z,4.85
2022-10-15T11:24:48.392Z,6.85
2022-10-15T11:29:56.391Z,6.97
2022-10-15T11:35:24.058Z,13.77
2022-10-15T11:40:41.079Z,6.82
2022-10-15T11:46:00.720Z,8.77
2022-10-15T11:51:08.191Z,7.47
2022-10-15T11:56:14.897Z,6.13
2022-10-15T12:01:20.597Z,6.05
2022-10-15T12:06:31.441Z,7.47
2022-10-15T12:11:41.870Z,7.03
2022-10-15T12:16:55.669Z,7.35
2022-10-15T12:22:11.578Z,8.95
2022-10-15T12:27:22.484Z,7.05
2022-10-15T12:32:26.949Z,11.20
2022-10-15T12:37:29.497Z,5.82
2022-10-15T12:42:31.221Z,5.47
2022-10-15T12:47:49.184Z,6.63
2022-10-15T12:52:59.720Z,6.15
2022-10-15T12:58:06.960Z,6.43
2022-10-15T13:03:39.096Z,14.27
2022-10-15T13:08:45.716Z,7.68
2022-10-15T13:13:46.089Z,8.02
2022-10-15T13:18:51.238Z,12.75
2022-10-15T13:23:52.781Z,9.95
2022-10-15T13:28:52.977Z,8.05
2022-10-15T13:33:55.427Z,8.82
2022-10-15T13:39:00.389Z,7.28
2022-10-15T13:44:01.230Z,8.88
2022-10-15T13:49:02.881Z,10.18
2022-10-15T13:54:08.546Z,10.45
2022-10-15T13:59:07.610Z,5.57
2022-10-15T14:04:17.372Z,8.18
2022-10-15T14:09:23.078Z,8.95
2022-10-15T14:14:34.217Z,7.38
2022-10-15T14:19:35.324Z,9.77
2022-10-15T14:24:39.150Z,7.00
2022-10-15T14:29:41.569Z,6.00
2022-10-15T14:34:42.119Z,12.60
2022-10-15T14:39:42.449Z,8.70
2022-10-15T14:44:46.667Z,10.02
2022-10-15T14:49:59.984Z,10.73
2022-10-15T14:55:11.744Z,8.57
2022-10-15T15:00:17.059Z,8.23
2022-10-15T15:05:23.956Z,9.40
2022-10-15T15:10:39.601Z,13.35
2022-10-15T15:15:42.473Z,13.00
2022-10-15T15:20:43.882Z,10.07
2022-10-15T15:25:44.163Z,9.60
2022-10-15T15:30:45.196Z,11.20
2022-10-15T15:35:51.118Z,10.77
2022-10-15T15:40:52.186Z,13.73
2022-10-15T15:45:51.010Z,12.70
2022-10-15T15:50:50.009Z,15.52
2022-10-15T15:55:51.425Z,13.60
2022-10-15T16:00:51.934Z,26.77
2022-10-15T16:10:50.162Z,16.77
2022-10-15T16:15:49.004Z,18.17
2022-10-15T16:20:49.990Z,18.60
2022-10-15T16:25:48.908Z,22.35
2022-10-15T16:30:47.766Z,20.00
2022-10-15T16:35:54.637Z,19.33
2022-10-15T16:40:53.418Z,25.90
2022-10-15T16:45:59.048Z,25.90
2022-10-15T16:51:03.667Z,29.55
2022-10-15T16:56:06.876Z,24.55
2022-10-15T17:01:07.573Z,25.05
2022-10-15T17:06:12.491Z,24.15
2022-10-15T17:11:17.083Z,20.83
2022-10-15T17:16:17.821Z,22.40
2022-10-15T17:21:22.714Z,20.83
2022-10-15T17:26:25.828Z,20.58
2022-10-15T17:31:26.579Z,21.25
2022-10-15T17:36:29.135Z,21.25
2022-10-15T17:41:33.560Z,19.15
2022-10-15T17:46:37.327Z,18.42
2022-10-15T17:51:38.285Z,17.25
2022-10-15T17:56:40.549Z,17.03
2022-10-15T18:01:59.216Z,16.17
2022-10-15T18:07:00.374Z,17.73
2022-10-15T18:12:01.305Z,18.00
2022-10-15T18:17:02.447Z,15.80
2022-10-15T18:22:02.751Z,14.38
2022-10-15T18:27:01.588Z,14.82
2022-10-15T18:32:00.776Z,18.65
2022-10-15T18:37:02.713Z,12.38
2022-10-15T18:42:01.676Z,15.20
2022-10-15T18:47:01.317Z,15.65
2022-10-15T18:52:15.779Z,12.98
2022-10-15T18:57:25.554Z,17.27
2022-10-15T19:02:28.044Z,19.58
2022-10-15T19:07:31.671Z,20.17
2022-10-15T19:12:31.496Z,15.48
2022-10-15T19:17:32.957Z,13.02
2022-10-15T19:22:33.760Z,13.82
2022-10-15T19:27:33.443Z,15.20
2022-10-15T19:32:32.418Z,13.65
2022-10-15T19:37:42.830Z,12.40
2022-10-15T19:42:42.068Z,11.52
2022-10-15T19:47:40.883Z,15.80
2022-10-15T19:52:42.228Z,13.18
2022-10-15T19:57:41.168Z,11.88
2022-10-15T20:02:39.968Z,14.68
2022-10-15T20:07:38.894Z,12.30
2022-10-15T20:12:39.361Z,13.52
2022-10-15T20:17:38.477Z,11.15
2022-10-15T20:22:37.325Z,12.05
2022-10-15T20:27:36.119Z,10.10
2022-10-15T20:32:37.180Z,14.05
2022-10-15T20:37:36.529Z,18.13
2022-10-15T20:42:37.697Z,15.65
2022-10-15T20:47:41.755Z,14.52
2022-10-15T20:52:43.157Z,12.13
2022-10-15T20:57:42.608Z,11.00
2022-10-15T21:02:43.194Z,10.18
2022-10-15T21:07:42.109Z,9.90
2022-10-15T21:12:41.348Z,11.32
2022-10-15T21:17:41.123Z,10.63
2022-10-15T21:22:59.821Z,10.50
2022-10-15T21:28:05.547Z,9.57
2022-10-15T21:33:07.719Z,14.35
2022-10-15T21:38:08.490Z,11.80
2022-10-15T21:43:09.480Z,21.55
2022-10-15T21:48:11.176Z,14.25
2022-10-15T21:53:11.334Z,13.48
2022-10-15T21:58:10.203Z,13.63
2022-10-15T22:03:09.006Z,14.20
2022-10-15T22:08:07.926Z,16.65
2022-10-15T22:13:08.293Z,16.35
2022-10-15T22:18:07.257Z,13.73
2022-10-15T22:23:06.052Z,12.95
2022-10-15T22:28:04.911Z,13.13
2022-10-15T22:33:05.503Z,12.63
2022-10-15T22:38:04.265Z,12.60
2022-10-15T22:43:04.607Z,17.00
2022-10-15T22:48:05.011Z,12.95
2022-10-15T22:53:04.752Z,12.68
2022-10-15T22:58:06.698Z,14.52
2022-10-15T23:03:07.214Z,16.63
2022-10-15T23:08:06.786Z,14.30
2022-10-15T23:13:05.523Z,13.70
2022-10-15T23:18:04.690Z,14.63
2022-10-15T23:23:05.082Z,14.52
2022-10-15T23:28:04.186Z,12.18
2022-10-15T23:33:03.873Z,13.25
2022-10-15T23:38:04.201Z,12.82
2022-10-15T23:43:03.057Z,13.07
2022-10-15T23:48:01.810Z,15.80
2022-10-15T23:53:00.813Z,15.07
2022-10-15T23:58:01.020Z,15.35
